createdAt,value
2018-11-23T00:01:37.378Z,100.00
2018-11-23T00:04:05.705Z,100.00
2018-11-23T00:06:34.138Z,100.00
2018-11-23T00:09:02.629Z,100.00
2018-11-23T00:11:30.995Z,100.00
2018-11-23T00:13:59.452Z,100.00
2018-11-23T00:16:27.802Z,100.00
2018-11-23T00:18:56.129Z,100.00
2018-11-23T00:21:24.536Z,100.00
2018-11-23T00:23:52.879Z,100.00
2018-11-23T00:26:21.209Z,100.00
2018-11-23T00:28:49.769Z,100.00
2018-11-23T00:31:18.131Z,100.00
2018-11-23T00:33:46.508Z,100.00
2018-11-23T00:36:14.946Z,100.00
2018-11-23T00:38:43.404Z,100.00
2018-11-23T00:41:11.768Z,100.00
2018-11-23T00:43:41.074Z,100.00
2018-11-23T00:46:09.577Z,100.00
2018-11-23T00:48:37.908Z,100.00
2018-11-23T00:51:06.309Z,100.00
2018-11-23T00:53:34.635Z,100.00
2018-11-23T00:56:03.077Z,100.00
2018-11-23T00:58:31.410Z,100.00
2018-11-23T01:00:59.743Z,100.00
2018-11-23T01:03:28.092Z,100.00
2018-11-23T01:05:56.465Z,100.00
2018-11-23T01:08:24.865Z,100.00
2018-11-23T01:10:53.676Z,100.00
2018-11-23T01:13:22.170Z,100.00
2018-11-23T01:15:50.519Z,100.00
2018-11-23T01:18:18.979Z,100.00
2018-11-23T01:20:47.397Z,100.00
2018-11-23T01:23:15.808Z,100.00
2018-11-23T01:25:44.241Z,100.00
2018-11-23T01:28:12.648Z,100.00
2018-11-23T01:30:41.091Z,100.00
2018-11-23T01:33:09.490Z,100.00
2018-11-23T01:35:37.906Z,100.00
2018-11-23T01:38:06.239Z,100.00
2018-11-23T01:40:34.596Z,100.00
2018-11-23T01:43:02.959Z,100.00
2018-11-23T01:45:31.274Z,100.00
2018-11-23T01:47:59.610Z,100.00
2018-11-23T01:50:29.134Z,100.00
2018-11-23T01:52:57.712Z,100.00
2018-11-23T01:55:26.612Z,100.00
2018-11-23T01:57:55.026Z,100.00
2018-11-23T02:00:24.638Z,100.00
2018-11-23T02:02:54.068Z,100.00
2018-11-23T02:05:22.526Z,100.00
2018-11-23T02:07:50.885Z,100.00
2018-11-23T02:10:19.540Z,100.00
2018-11-23T02:12:47.920Z,100.00
2018-11-23T02:15:18.417Z,100.00
2018-11-23T02:17:47.199Z,100.00
2018-11-23T02:20:16.891Z,100.00
2018-11-23T02:22:45.176Z,100.00
2018-11-23T02:25:13.643Z,100.00
2018-11-23T02:27:42.022Z,100.00
2018-11-23T02:30:13.143Z,100.00
2018-11-23T02:32:41.804Z,100.00
2018-11-23T02:35:10.194Z,100.00
2018-11-23T02:37:38.533Z,100.00
2018-11-23T02:40:07.600Z,100.00
2018-11-23T02:42:35.965Z,100.00
2018-11-23T02:45:04.353Z,100.00
2018-11-23T02:47:32.734Z,100.00
2018-11-23T02:50:01.088Z,100.00
2018-11-23T02:52:29.497Z,100.00
2018-11-23T02:54:57.826Z,100.00
2018-11-23T02:57:26.213Z,100.00
2018-11-23T02:59:54.657Z,100.00
2018-11-23T03:02:23.094Z,100.00
2018-11-23T03:04:51.493Z,100.00
2018-11-23T03:07:20.011Z,100.00
2018-11-23T03:09:48.359Z,100.00
2018-11-23T03:12:16.713Z,100.00
2018-11-23T03:14:45.115Z,100.00
2018-11-23T03:17:13.495Z,100.00
2018-11-23T03:19:41.860Z,100.00
2018-11-23T03:22:10.161Z,100.00
2018-11-23T03:24:38.546Z,100.00
2018-11-23T03:27:06.870Z,100.00
2018-11-23T03:29:35.344Z,100.00
2018-11-23T03:32:03.822Z,100.00
2018-11-23T03:34:32.274Z,100.00
2018-11-23T03:37:00.713Z,100.00
2018-11-23T03:39:34.015Z,100.00
2018-11-23T03:41:57.697Z,100.00
2018-11-23T03:44:26.060Z,100.00
2018-11-23T03:46:54.445Z,100.00
2018-11-23T03:49:22.793Z,100.00
2018-11-23T03:51:51.167Z,100.00
2018-11-23T03:54:19.509Z,100.00
2018-11-23T03:56:47.913Z,100.00
2018-11-23T03:59:16.196Z,100.00
2018-11-23T04:01:44.558Z,100.00
2018-11-23T04:04:12.897Z,100.00
2018-11-23T04:06:41.176Z,100.00
2018-11-23T04:09:09.695Z,100.00
2018-11-23T04:11:38.201Z,100.00
2018-11-23T04:14:06.549Z,100.00
2018-11-23T04:16:35.013Z,100.00
2018-11-23T04:19:03.383Z,100.00
2018-11-23T04:21:31.693Z,100.00
2018-11-23T04:24:00.018Z,100.00
2018-11-23T04:26:28.357Z,100.00
2018-11-23T04:28:56.701Z,100.00
2018-11-23T04:31:25.045Z,100.00
2018-11-23T04:33:53.357Z,100.00
2018-11-23T04:36:21.666Z,100.00
2018-11-23T04:38:49.952Z,100.00
2018-11-23T04:41:18.309Z,100.00
2018-11-23T04:43:46.650Z,100.00
2018-11-23T04:46:14.974Z,100.00
2018-11-23T04:48:43.303Z,100.00
2018-11-23T04:51:11.692Z,100.00
2018-11-23T04:53:40.045Z,100.00
2018-11-23T04:56:08.460Z,100.00
2018-11-23T04:58:37.034Z,100.00
2018-11-23T05:01:05.515Z,100.00
2018-11-23T05:03:33.887Z,100.00
2018-11-23T05:06:02.270Z,100.00
2018-11-23T05:08:30.588Z,100.00
2018-11-23T05:10:59.001Z,100.00
2018-11-23T05:13:27.418Z,100.00
2018-11-23T05:15:55.808Z,100.00
2018-11-23T05:18:24.213Z,100.00
2018-11-23T05:20:52.562Z,100.00
2018-11-23T05:23:20.951Z,100.00
2018-11-23T05:25:49.313Z,100.00
2018-11-23T05:28:17.706Z,100.00
2018-11-23T05:30:46.030Z,100.00
2018-11-23T05:33:14.389Z,100.00
2018-11-23T05:35:42.714Z,100.00
2018-11-23T05:38:11.116Z,100.00
2018-11-23T05:40:39.768Z,100.00
2018-11-23T05:43:08.236Z,100.00
2018-11-23T05:45:36.660Z,100.00
2018-11-23T05:48:05.244Z,100.00
2018-11-23T05:50:33.663Z,100.00
2018-11-23T05:53:01.977Z,100.00
2018-11-23T05:55:30.307Z,100.00
2018-11-23T05:57:58.636Z,100.00
2018-11-23T06:00:28.520Z,100.00
2018-11-23T06:02:56.963Z,100.00
2018-11-23T06:05:25.377Z,100.00
2018-11-23T06:07:53.828Z,100.00
2018-11-23T06:10:22.640Z,100.00
2018-11-23T06:12:51.049Z,100.00
2018-11-23T06:15:21.568Z,100.00
2018-11-23T06:17:50.159Z,100.00
2018-11-23T06:20:20.517Z,100.00
2018-11-23T06:22:49.735Z,100.00
2018-11-23T06:25:23.217Z,100.00
2018-11-23T06:27:51.704Z,100.00
2018-11-23T06:30:20.118Z,100.00
2018-11-23T06:32:59.742Z,100.00
2018-11-23T06:35:28.105Z,100.00
2018-11-23T06:37:56.501Z,100.00
2018-11-23T06:40:24.900Z,100.00
2018-11-23T06:42:53.223Z,100.00
2018-11-23T06:45:21.760Z,100.00
2018-11-23T06:47:50.290Z,100.00
2018-11-23T06:50:18.682Z,100.00
2018-11-23T06:52:47.105Z,100.00
2018-11-23T06:55:15.533Z,100.00
2018-11-23T06:57:43.924Z,100.00
2018-11-23T07:00:15.534Z,100.00
2018-11-23T07:02:44.896Z,100.00
2018-11-23T07:05:13.660Z,100.00
2018-11-23T07:07:42.041Z,100.00
2018-11-23T07:10:11.068Z,100.00
2018-11-23T07:12:40.033Z,100.00
2018-11-23T07:15:09.864Z,100.00
2018-11-23T07:17:38.672Z,100.00
2018-11-23T07:20:08.916Z,100.00
2018-11-23T07:22:37.547Z,100.00
2018-11-23T07:25:06.652Z,100.00
2018-11-23T07:27:35.016Z,100.00
2018-11-23T07:30:03.549Z,100.00
2018-11-23T07:32:31.901Z,100.00
2018-11-23T07:35:00.253Z,100.00
2018-11-23T07:37:28.656Z,100.00
2018-11-23T07:40:08.240Z,100.00
2018-11-23T07:42:37.492Z,100.00
2018-11-23T07:45:06.165Z,100.00
2018-11-23T07:47:34.488Z,100.00
2018-11-23T07:50:02.856Z,100.00
2018-11-23T07:52:31.190Z,100.00
2018-11-23T07:54:59.592Z,100.00
2018-11-23T07:57:27.925Z,100.00
2018-11-23T07:59:56.408Z,100.00
2018-11-23T08:02:24.758Z,100.00
2018-11-23T08:04:53.309Z,100.00
2018-11-23T08:07:22.257Z,100.00
2018-11-23T08:09:50.688Z,100.00
2018-11-23T08:12:19.072Z,100.00
2018-11-23T08:14:47.476Z,100.00
2018-11-23T08:17:15.880Z,100.00
2018-11-23T08:19:47.389Z,100.00
2018-11-23T08:22:12.766Z,100.00
2018-11-23T08:24:41.081Z,100.00
2018-11-23T08:27:09.401Z,100.00
2018-11-23T08:29:37.773Z,100.00
2018-11-23T08:32:06.114Z,100.00
2018-11-23T08:34:34.411Z,100.00
2018-11-23T08:37:02.796Z,100.00
2018-11-23T08:39:31.105Z,100.00
2018-11-23T08:41:59.532Z,100.00
2018-11-23T08:44:27.925Z,99.59
2018-11-23T08:46:56.297Z,100.00
2018-11-23T08:49:24.872Z,98.83
2018-11-23T08:51:53.284Z,98.94
2018-11-23T08:54:21.584Z,97.55
2018-11-23T08:56:49.932Z,97.79
2018-11-23T08:59:18.410Z,98.51
2018-11-23T09:01:46.821Z,98.21
2018-11-23T09:04:15.117Z,98.23
2018-11-23T09:06:43.470Z,99.54
2018-11-23T09:09:12.262Z,99.84
2018-11-23T09:11:40.649Z,100.00
2018-11-23T09:14:09.976Z,100.00
2018-11-23T09:16:38.341Z,100.00
2018-11-23T09:19:06.780Z,99.92
2018-11-23T09:21:35.201Z,98.93
2018-11-23T09:24:03.537Z,99.47
2018-11-23T09:26:33.817Z,98.53
2018-11-23T09:29:10.533Z,97.70
2018-11-23T09:31:38.961Z,96.03
2018-11-23T09:34:07.364Z,94.71
2018-11-23T09:36:35.688Z,94.34
2018-11-23T09:39:05.281Z,94.04
2018-11-23T09:41:33.677Z,93.56
2018-11-23T09:44:02.002Z,92.36
2018-11-23T09:46:30.424Z,92.25
2018-11-23T09:48:58.809Z,91.48
2018-11-23T09:51:27.126Z,91.29
2018-11-23T09:53:55.826Z,91.70
2018-11-23T09:56:24.155Z,90.83
2018-11-23T09:58:52.516Z,91.47
2018-11-23T10:01:20.854Z,91.27
2018-11-23T10:03:49.268Z,92.24
2018-11-23T10:06:17.621Z,91.39
2018-11-23T10:08:46.002Z,92.40
2018-11-23T10:11:14.342Z,92.54
2018-11-23T10:13:42.761Z,94.50
2018-11-23T10:16:11.110Z,96.71
2018-11-23T10:18:39.446Z,94.21
2018-11-23T10:21:07.916Z,93.71
2018-11-23T10:23:36.271Z,92.74
2018-11-23T10:26:04.742Z,93.61
2018-11-23T10:28:33.325Z,93.26
2018-11-23T10:31:01.709Z,95.21
2018-11-23T10:33:30.069Z,93.61
2018-11-23T10:35:58.533Z,95.27
2018-11-23T10:38:26.920Z,94.97
2018-11-23T10:40:55.937Z,94.43
2018-11-23T10:43:24.222Z,94.34
2018-11-23T10:45:52.598Z,96.66
2018-11-23T10:48:20.912Z,96.02
2018-11-23T10:50:49.273Z,95.27
2018-11-23T10:53:17.643Z,95.22
2018-11-23T10:55:46.018Z,95.94
2018-11-23T10:58:14.302Z,96.20
2018-11-23T11:00:47.824Z,95.71
2018-11-23T11:03:33.496Z,95.63
2018-11-23T11:06:10.436Z,94.28
2018-11-23T11:08:39.224Z,95.10
2018-11-23T11:11:08.178Z,94.45
2018-11-23T11:13:36.336Z,95.67
2018-11-23T11:16:04.748Z,93.37
2018-11-23T11:18:33.051Z,94.67
2018-11-23T11:21:01.360Z,94.58
2018-11-23T11:23:29.744Z,93.03
2018-11-23T11:25:58.118Z,93.11
2018-11-23T11:28:26.507Z,91.78
2018-11-23T11:30:54.865Z,87.93
2018-11-23T11:33:23.289Z,88.30
2018-11-23T11:35:51.652Z,87.19
2018-11-23T11:38:20.013Z,84.55
2018-11-23T11:40:48.396Z,81.71
2018-11-23T11:43:16.837Z,80.01
2018-11-23T11:45:45.260Z,81.42
2018-11-23T11:48:13.652Z,80.60
2018-11-23T11:50:42.205Z,77.81
2018-11-23T11:53:10.581Z,75.11
2018-11-23T11:55:38.985Z,71.15
2018-11-23T11:58:07.264Z,72.59
2018-11-23T12:00:35.780Z,71.67
2018-11-23T12:03:04.127Z,70.02
2018-11-23T12:05:32.547Z,71.63
2018-11-23T12:08:00.931Z,70.17
2018-11-23T12:10:29.290Z,68.58
2018-11-23T12:12:57.707Z,67.20
2018-11-23T12:15:38.196Z,65.86
2018-11-23T12:18:18.446Z,63.81
2018-11-23T12:20:47.208Z,63.32
2018-11-23T12:23:16.730Z,65.33
2018-11-23T12:25:45.289Z,64.15
2018-11-23T12:28:13.608Z,62.65
2018-11-23T12:30:41.962Z,62.72
2018-11-23T12:33:10.330Z,61.21
2018-11-23T12:35:38.684Z,60.58
2018-11-23T12:38:07.072Z,59.93
2018-11-23T12:40:35.472Z,60.97
2018-11-23T12:43:03.891Z,58.78
2018-11-23T12:45:32.414Z,58.80
2018-11-23T12:48:00.960Z,59.03
2018-11-23T12:50:29.395Z,57.40
2018-11-23T12:53:01.559Z,59.46
2018-11-23T12:55:26.489Z,58.06
2018-11-23T12:57:55.049Z,57.44
2018-11-23T13:00:27.625Z,57.71
2018-11-23T13:02:58.528Z,57.15
2018-11-23T13:05:27.825Z,56.97
2018-11-23T13:07:57.187Z,57.21
2018-11-23T13:10:26.163Z,55.82
2018-11-23T13:12:55.380Z,56.67
2018-11-23T13:15:23.800Z,56.02
2018-11-23T13:17:52.211Z,56.71
2018-11-23T13:20:20.700Z,54.60
2018-11-23T13:22:49.087Z,56.11
2018-11-23T13:25:19.806Z,54.90
2018-11-23T13:27:51.722Z,55.21
2018-11-23T13:30:22.877Z,56.43
2018-11-23T13:32:51.393Z,58.73
2018-11-23T13:35:20.215Z,59.54
2018-11-23T13:37:48.561Z,60.92
2018-11-23T13:40:18.336Z,61.65
2018-11-23T13:42:47.135Z,66.21
2018-11-23T13:45:16.944Z,66.04
2018-11-23T13:47:45.315Z,68.44
2018-11-23T13:50:15.079Z,67.51
2018-11-23T13:52:44.533Z,69.68
2018-11-23T13:55:12.889Z,71.67
2018-11-23T13:57:41.389Z,72.24
2018-11-23T14:00:13.603Z,71.82
2018-11-23T14:02:42.178Z,72.80
2018-11-23T14:05:12.694Z,73.42
2018-11-23T14:07:41.473Z,73.53
2018-11-23T14:10:11.923Z,76.48
2018-11-23T14:12:40.544Z,77.07
2018-11-23T14:15:11.843Z,78.82
2018-11-23T14:17:40.450Z,78.68
2018-11-23T14:20:10.628Z,79.08
2018-11-23T14:22:39.055Z,80.88
2018-11-23T14:25:08.815Z,82.85
2018-11-23T14:27:37.388Z,82.43
2018-11-23T14:30:08.616Z,83.61
2018-11-23T14:32:37.154Z,82.95
2018-11-23T14:35:05.965Z,81.86
2018-11-23T14:37:34.377Z,81.94
2018-11-23T14:40:02.768Z,81.56
2018-11-23T14:42:31.179Z,81.80
2018-11-23T14:44:59.557Z,83.43
2018-11-23T14:47:28.011Z,83.54
2018-11-23T14:49:56.422Z,83.10
2018-11-23T14:52:24.827Z,83.87
2018-11-23T14:54:53.262Z,84.26
2018-11-23T14:57:21.765Z,86.10
2018-11-23T14:59:50.188Z,84.59
2018-11-23T15:02:18.539Z,84.49
2018-11-23T15:04:46.989Z,85.75
2018-11-23T15:07:15.398Z,86.23
2018-11-23T15:09:44.015Z,86.14
2018-11-23T15:12:12.325Z,87.20
2018-11-23T15:14:40.773Z,88.17
2018-11-23T15:17:09.092Z,87.17
2018-11-23T15:19:37.541Z,86.97
2018-11-23T15:22:06.015Z,86.22
2018-11-23T15:24:34.355Z,86.81
2018-11-23T15:27:03.148Z,88.02
2018-11-23T15:29:31.713Z,88.34
2018-11-23T15:32:00.086Z,90.16
2018-11-23T15:34:28.560Z,89.43
2018-11-23T15:36:56.906Z,90.52
2018-11-23T15:39:25.333Z,91.50
2018-11-23T15:41:53.680Z,91.50
2018-11-23T15:44:22.091Z,92.70
2018-11-23T15:46:50.580Z,94.76
2018-11-23T15:49:19.112Z,93.01
2018-11-23T15:51:47.503Z,92.58
2018-11-23T15:54:15.901Z,97.04
2018-11-23T15:56:44.652Z,97.42
2018-11-23T15:59:13.488Z,94.25
2018-11-23T16:01:41.883Z,95.03
2018-11-23T16:04:10.312Z,93.62
2018-11-23T16:06:38.751Z,94.42
2018-11-23T16:09:10.585Z,93.04
2018-11-23T16:11:39.104Z,96.72
2018-11-23T16:14:07.624Z,95.78
2018-11-23T16:16:36.214Z,97.04
2018-11-23T16:19:04.978Z,94.58
2018-11-23T16:21:33.293Z,95.06
2018-11-23T16:24:01.772Z,94.66
2018-11-23T16:26:30.315Z,98.15
2018-11-23T16:28:58.675Z,99.93
2018-11-23T16:31:27.017Z,98.14
2018-11-23T16:33:55.345Z,96.67
2018-11-23T16:36:23.723Z,98.55
2018-11-23T16:38:58.212Z,95.89
2018-11-23T16:41:33.678Z,94.72
2018-11-23T16:44:02.107Z,95.09
2018-11-23T16:46:30.505Z,96.05
2018-11-23T16:48:58.935Z,97.44
2018-11-23T16:51:27.340Z,97.26
2018-11-23T16:53:55.726Z,98.53
2018-11-23T16:56:24.145Z,99.59
2018-11-23T16:58:52.510Z,100.00
2018-11-23T17:01:20.924Z,98.72
2018-11-23T17:03:49.369Z,99.54
2018-11-23T17:06:17.844Z,99.52
2018-11-23T17:08:46.271Z,98.70
2018-11-23T17:11:14.672Z,97.96
2018-11-23T17:13:43.024Z,98.91
2018-11-23T17:16:12.212Z,100.00
2018-11-23T17:18:40.699Z,100.00
2018-11-23T17:21:09.161Z,99.92
2018-11-23T17:23:37.588Z,100.00
2018-11-23T17:26:06.005Z,100.00
2018-11-23T17:28:34.384Z,100.00
2018-11-23T17:31:02.697Z,100.00
2018-11-23T17:33:31.227Z,100.00
2018-11-23T17:35:59.583Z,100.00
2018-11-23T17:38:28.102Z,100.00
2018-11-23T17:40:56.889Z,100.00
2018-11-23T17:43:25.306Z,100.00
2018-11-23T17:45:53.797Z,100.00
2018-11-23T17:48:22.321Z,100.00
2018-11-23T17:50:50.750Z,100.00
2018-11-23T17:53:19.153Z,100.00
2018-11-23T17:55:47.502Z,100.00
2018-11-23T17:58:16.069Z,100.00
2018-11-23T18:00:44.435Z,100.00
2018-11-23T18:03:12.850Z,100.00
2018-11-23T18:05:42.250Z,100.00
2018-11-23T18:08:10.705Z,100.00
2018-11-23T18:10:45.551Z,100.00
2018-11-23T18:13:14.062Z,100.00
2018-11-23T18:15:42.491Z,100.00
2018-11-23T18:18:10.848Z,100.00
2018-11-23T18:20:39.188Z,100.00
2018-11-23T18:23:07.586Z,100.00
2018-11-23T18:25:38.645Z,100.00
2018-11-23T18:28:07.164Z,100.00
2018-11-23T18:30:35.700Z,100.00
2018-11-23T18:33:05.579Z,100.00
2018-11-23T18:35:34.175Z,100.00
2018-11-23T18:38:02.665Z,100.00
2018-11-23T18:40:37.123Z,100.00
2018-11-23T18:42:59.554Z,100.00
2018-11-23T18:45:27.992Z,100.00
2018-11-23T18:47:56.382Z,100.00
2018-11-23T18:50:24.745Z,100.00
2018-11-23T18:52:53.140Z,100.00
2018-11-23T18:55:21.576Z,100.00
2018-11-23T18:57:50.241Z,100.00
2018-11-23T19:00:18.778Z,100.00
2018-11-23T19:02:47.826Z,100.00
2018-11-23T19:05:18.381Z,100.00
2018-11-23T19:07:47.946Z,100.00
2018-11-23T19:10:16.346Z,100.00
2018-11-23T19:12:44.790Z,100.00
2018-11-23T19:15:14.505Z,100.00
2018-11-23T19:17:44.890Z,100.00
2018-11-23T19:20:20.324Z,100.00
2018-11-23T19:22:53.225Z,100.00
2018-11-23T19:25:21.698Z,100.00
2018-11-23T19:27:50.463Z,100.00
2018-11-23T19:30:27.708Z,100.00
2018-11-23T19:32:48.453Z,100.00
2018-11-23T19:35:16.865Z,100.00
2018-11-23T19:37:45.252Z,100.00
2018-11-23T19:40:15.088Z,100.00
2018-11-23T19:42:44.167Z,100.00
2018-11-23T19:45:13.712Z,100.00
2018-11-23T19:47:42.161Z,100.00
2018-11-23T19:50:13.292Z,100.00
2018-11-23T19:52:41.792Z,100.00
2018-11-23T19:55:11.144Z,100.00
2018-11-23T19:57:39.521Z,100.00
2018-11-23T20:00:14.570Z,100.00
2018-11-23T20:02:43.076Z,100.00
2018-11-23T20:05:11.569Z,100.00
2018-11-23T20:07:40.022Z,100.00
2018-11-23T20:10:13.774Z,100.00
2018-11-23T20:12:42.286Z,100.00
2018-11-23T20:15:13.354Z,100.00
2018-11-23T20:17:41.752Z,100.00
2018-11-23T20:20:11.430Z,100.00
2018-11-23T20:22:39.889Z,100.00
2018-11-23T20:25:10.092Z,100.00
2018-11-23T20:27:38.593Z,100.00
2018-11-23T20:30:10.394Z,100.00
2018-11-23T20:32:38.916Z,100.00
2018-11-23T20:35:08.768Z,100.00
2018-11-23T20:37:37.193Z,100.00
2018-11-23T20:40:09.559Z,100.00
2018-11-23T20:42:38.023Z,100.00
2018-11-23T20:45:08.072Z,100.00
2018-11-23T20:47:36.718Z,100.00
2018-11-23T20:50:06.612Z,100.00
2018-11-23T20:52:35.292Z,100.00
2018-11-23T20:55:03.645Z,100.00
2018-11-23T20:57:32.034Z,100.00
2018-11-23T21:00:00.635Z,100.00
2018-11-23T21:02:29.101Z,100.00
2018-11-23T21:04:57.534Z,100.00
2018-11-23T21:07:26.214Z,100.00
2018-11-23T21:09:54.615Z,100.00
2018-11-23T21:12:22.984Z,100.00
2018-11-23T21:14:51.409Z,100.00
2018-11-23T21:17:19.776Z,100.00
2018-11-23T21:19:48.156Z,100.00
2018-11-23T21:22:16.716Z,100.00
2018-11-23T21:24:45.157Z,100.00
2018-11-23T21:27:13.480Z,100.00
2018-11-23T21:29:41.874Z,100.00
2018-11-23T21:32:10.296Z,100.00
2018-11-23T21:34:38.631Z,100.00
2018-11-23T21:37:07.096Z,100.00
2018-11-23T21:39:35.569Z,100.00
2018-11-23T21:42:03.956Z,100.00
2018-11-23T21:44:32.333Z,100.00
2018-11-23T21:47:00.718Z,100.00
2018-11-23T21:49:29.060Z,100.00
2018-11-23T21:51:57.415Z,100.00
2018-11-23T21:54:25.839Z,100.00
2018-11-23T21:56:54.180Z,100.00
2018-11-23T21:59:22.533Z,100.00
2018-11-23T22:01:50.842Z,100.00
2018-11-23T22:04:19.281Z,100.00
2018-11-23T22:06:47.637Z,100.00
2018-11-23T22:09:16.132Z,100.00
2018-11-23T22:11:44.515Z,100.00
2018-11-23T22:14:12.837Z,100.00
2018-11-23T22:16:41.234Z,100.00
2018-11-23T22:19:09.766Z,100.00
2018-11-23T22:21:38.106Z,100.00
2018-11-23T22:24:07.493Z,100.00
2018-11-23T22:26:35.825Z,100.00
2018-11-23T22:29:04.217Z,100.00
2018-11-23T22:31:32.734Z,100.00
2018-11-23T22:34:01.057Z,100.00
2018-11-23T22:36:29.434Z,100.00
2018-11-23T22:38:57.762Z,100.00
2018-11-23T22:41:26.179Z,100.00
2018-11-23T22:43:54.497Z,100.00
2018-11-23T22:46:22.892Z,100.00
2018-11-23T22:48:51.285Z,100.00
2018-11-23T22:51:19.610Z,100.00
2018-11-23T22:53:48.089Z,100.00
2018-11-23T22:56:16.469Z,100.00
2018-11-23T22:58:44.936Z,100.00
2018-11-23T23:01:13.277Z,100.00
2018-11-23T23:03:41.697Z,100.00
2018-11-23T23:06:10.090Z,100.00
2018-11-23T23:08:38.453Z,100.00
2018-11-23T23:11:06.865Z,100.00
2018-11-23T23:13:35.317Z,100.00
2018-11-23T23:16:03.700Z,100.00
2018-11-23T23:18:32.024Z,100.00
2018-11-23T23:21:00.417Z,100.00
2018-11-23T23:23:28.689Z,100.00
2018-11-23T23:25:56.990Z,100.00
2018-11-23T23:28:25.395Z,100.00
2018-11-23T23:30:53.764Z,100.00
2018-11-23T23:33:22.125Z,100.00
2018-11-23T23:35:50.509Z,100.00
2018-11-23T23:38:18.864Z,100.00
2018-11-23T23:40:47.302Z,100.00
2018-11-23T23:43:15.675Z,100.00
2018-11-23T23:45:44.059Z,100.00
2018-11-23T23:48:12.491Z,100.00
2018-11-23T23:50:40.834Z,100.00
2018-11-23T23:53:09.176Z,100.00
2018-11-23T23:55:37.587Z,100.00
2018-11-23T23:58:06.099Z,100.00
